Private Wetterstation Sandau
Wetterdaten: Donnerstag, 05.01.2012
Datum Zeit Temp. A. Feuchte A. Luftdruck Regen Wind Richtung Richtung Taupunkt Windchill
05.01.2012 00:02 5,6 C 79 % 999,4 hPa 0,0 l/m 31,3 km/h (5 Bft) S-SW 202 2,3 C 0,7 C
05.01.2012 00:07 5,6 C 79 % 999,2 hPa 0,0 l/m 22,0 km/h (4 Bft) S-SO 157 2,3 C 1,6 C
05.01.2012 00:12 5,6 C 80 % 999,3 hPa 0,0 l/m 18,4 km/h (3 Bft) SW 225 2,4 C 2,0 C
05.01.2012 00:17 5,6 C 81 % 999,2 hPa 0,0 l/m 14,4 km/h (3 Bft) W 270 2,6 C 2,6 C
05.01.2012 00:22 5,5 C 81 % 999,1 hPa 0,0 l/m 16,2 km/h (3 Bft) W-SW 247 2,5 C 2,2 C
05.01.2012 00:27 5,5 C 81 % 999,3 hPa 0,0 l/m 20,9 km/h (4 Bft) W-SW 247 2,5 C 1,6 C
05.01.2012 00:32 5,4 C 82 % 998,9 hPa 0,0 l/m 13,3 km/h (3 Bft) SW 225 2,6 C 2,5 C
05.01.2012 00:37 5,4 C 82 % 998,7 hPa 0,0 l/m 28,8 km/h (4 Bft) S-SW 202 2,6 C 0,7 C
05.01.2012 00:42 5,4 C 82 % 998,6 hPa 0,0 l/m 19,4 km/h (3 Bft) SW 225 2,6 C 1,6 C
05.01.2012 00:47 5,3 C 82 % 998,2 hPa 0,0 l/m 27,7 km/h (4 Bft) SW 225 2,5 C 0,6 C
05.01.2012 00:52 5,3 C 83 % 998,2 hPa 0,0 l/m 22,0 km/h (4 Bft) SW 225 2,7 C 1,2 C
05.01.2012 00:57 5,2 C 83 % 997,9 hPa 1,0 l/m 16,9 km/h (3 Bft) W-SW 247 2,6 C 1,7 C
05.01.2012 01:02 5,1 C 83 % 997,6 hPa 0,0 l/m 17,3 km/h (3 Bft) S-SW 202 2,5 C 1,5 C
05.01.2012 01:07 5,0 C 84 % 997,5 hPa 0,0 l/m 22,0 km/h (4 Bft) S-SW 202 2,5 C 0,8 C
05.01.2012 01:12 4,9 C 84 % 997,1 hPa 0,5 l/m 25,2 km/h (4 Bft) S-SW 202 2,4 C 0,4 C
05.01.2012 01:17 4,9 C 84 % 997,0 hPa 0,0 l/m 18,0 km/h (3 Bft) SW 225 2,4 C 1,2 C
05.01.2012 01:22 4,8 C 84 % 996,5 hPa 0,5 l/m 17,3 km/h (3 Bft) S-SW 202 2,3 C 1,2 C
05.01.2012 01:27 4,7 C 85 % 996,3 hPa 0,0 l/m 20,9 km/h (4 Bft) SW 225 2,4 C 0,6 C
05.01.2012 01:32 4,7 C 85 % 996,0 hPa 0,0 l/m 26,6 km/h (4 Bft) S-SW 202 2,4 C -0,0 C
05.01.2012 01:37 4,6 C 86 % 995,9 hPa 0,0 l/m 29,2 km/h (5 Bft) SW 225 2,5 C -0,4 C
05.01.2012 01:42 4,6 C 86 % 995,4 hPa 0,0 l/m 8,3 km/h (2 Bft) S-SW 202 2,5 C 2,6 C
05.01.2012 01:47 4,6 C 85 % 995,2 hPa 0,5 l/m 18,7 km/h (3 Bft) S-SO 157 2,3 C 0,7 C
05.01.2012 01:52 4,6 C 86 % 994,9 hPa 0,0 l/m 25,6 km/h (4 Bft) SW 225 2,5 C -0,1 C
05.01.2012 01:57 4,6 C 86 % 994,7 hPa 0,0 l/m 11,9 km/h (2 Bft) W-SW 247 2,5 C 1,8 C
05.01.2012 02:02 4,6 C 86 % 994,5 hPa 0,0 l/m 17,3 km/h (3 Bft) SW 225 2,5 C 0,9 C
05.01.2012 02:07 4,6 C 87 % 994,0 hPa 0,5 l/m 33,1 km/h (5 Bft) S-SW 202 2,6 C -0,7 C
05.01.2012 02:12 4,6 C 87 % 993,8 hPa 0,0 l/m 22,7 km/h (4 Bft) S-SW 202 2,6 C 0,2 C
05.01.2012 02:17 4,6 C 87 % 993,7 hPa 0,0 l/m 23,8 km/h (4 Bft) W-SW 247 2,6 C 0,1 C
05.01.2012 02:22 4,7 C 87 % 993,4 hPa 0,0 l/m 15,8 km/h (3 Bft) S-SW 202 2,7 C 1,3 C
05.01.2012 02:27 4,7 C 87 % 993,3 hPa 0,0 l/m 24,1 km/h (4 Bft) S-SW 202 2,7 C 0,2 C
05.01.2012 02:32 4,7 C 87 % 993,2 hPa 0,0 l/m 24,1 km/h (4 Bft) SW 225 2,7 C 0,2 C
05.01.2012 02:37 4,7 C 87 % 992,7 hPa 0,0 l/m 30,6 km/h (5 Bft) S 180 2,7 C -0,4 C
05.01.2012 02:42 4,7 C 87 % 992,5 hPa 0,0 l/m 27,7 km/h (4 Bft) S-SO 157 2,7 C -0,1 C
05.01.2012 02:47 4,8 C 87 % 992,3 hPa 0,5 l/m 19,8 km/h (3 Bft) W-NW 292 2,8 C 0,8 C
05.01.2012 02:52 4,8 C 87 % 992,2 hPa 0,0 l/m 13,7 km/h (3 Bft) S-SW 202 2,8 C 1,7 C
05.01.2012 02:57 4,8 C 87 % 991,9 hPa 0,0 l/m 24,5 km/h (4 Bft) S-SW 202 2,8 C 0,3 C
05.01.2012 03:02 4,8 C 87 % 991,7 hPa 0,0 l/m 19,8 km/h (3 Bft) S-SW 202 2,8 C 0,8 C
05.01.2012 03:07 4,8 C 88 % 991,1 hPa 0,0 l/m 24,5 km/h (4 Bft) S-SO 157 3,0 C 0,3 C
05.01.2012 03:12 4,8 C 88 % 991,0 hPa 0,5 l/m 15,1 km/h (3 Bft) S-SO 157 3,0 C 1,5 C
05.01.2012 03:17 4,8 C 88 % 990,7 hPa 0,0 l/m 25,2 km/h (4 Bft) S-SW 202 3,0 C 0,2 C
05.01.2012 03:22 4,8 C 88 % 990,7 hPa 0,0 l/m 22,0 km/h (4 Bft) S 180 3,0 C 0,6 C
05.01.2012 03:27 4,9 C 88 % 990,4 hPa 0,0 l/m 25,9 km/h (4 Bft) W-SW 247 3,1 C 0,3 C
05.01.2012 03:32 4,9 C 88 % 990,2 hPa 0,0 l/m 32,4 km/h (5 Bft) S 180 3,1 C -0,3 C
05.01.2012 03:37 4,9 C 88 % 990,0 hPa 0,0 l/m 14,4 km/h (3 Bft) SW 225 3,1 C 1,7 C
05.01.2012 03:42 4,9 C 88 % 989,6 hPa 0,0 l/m 27,4 km/h (4 Bft) S-SW 202 3,1 C 0,2 C
05.01.2012 03:47 4,9 C 88 % 989,3 hPa 0,5 l/m 22,7 km/h (4 Bft) W-SW 247 3,1 C 0,6 C
05.01.2012 03:52 4,9 C 88 % 989,2 hPa 0,0 l/m 15,5 km/h (3 Bft) SW 225 3,1 C 1,5 C
05.01.2012 03:57 5,1 C 88 % 989,0 hPa 0,0 l/m 20,9 km/h (4 Bft) S-SW 202 3,3 C 1,1 C
05.01.2012 04:02 5,1 C 88 % 988,7 hPa 0,0 l/m 19,1 km/h (3 Bft) SO 135 3,3 C 1,3 C
05.01.2012 04:07 5,1 C 88 % 988,4 hPa 0,0 l/m 15,5 km/h (3 Bft) S-SO 157 3,3 C 1,8 C
05.01.2012 04:12 5,1 C 88 % 988,1 hPa 0,5 l/m 10,8 km/h (2 Bft) S-SW 202 3,3 C 2,6 C
05.01.2012 04:17 5,2 C 88 % 987,9 hPa 0,0 l/m 33,5 km/h (5 Bft) S-SW 202 3,4 C 0,0 C
05.01.2012 04:22 5,3 C 88 % 987,5 hPa 0,0 l/m 20,9 km/h (4 Bft) S 180 3,5 C 1,3 C
05.01.2012 04:27 5,3 C 88 % 987,1 hPa 0,0 l/m 16,9 km/h (3 Bft) W-SW 247 3,5 C 1,8 C
05.01.2012 04:32 5,4 C 89 % 986,8 hPa 0,0 l/m 16,6 km/h (3 Bft) SW 225 3,7 C 2,0 C
05.01.2012 04:37 5,4 C 89 % 986,4 hPa 0,0 l/m 32,4 km/h (5 Bft) SW 225 3,7 C 0,4 C
05.01.2012 04:42 5,5 C 88 % 986,1 hPa 0,5 l/m 27,4 km/h (4 Bft) W-SW 247 3,7 C 0,9 C
05.01.2012 04:47 5,6 C 88 % 986,1 hPa 0,0 l/m 22,0 km/h (4 Bft) W-SW 247 3,8 C 1,6 C
05.01.2012 04:52 5,6 C 88 % 985,7 hPa 0,0 l/m 20,5 km/h (4 Bft) SW 225 3,8 C 1,8 C
05.01.2012 04:57 5,6 C 88 % 985,4 hPa 0,0 l/m 19,4 km/h (3 Bft) W-SW 247 3,8 C 1,9 C
05.01.2012 05:02 5,6 C 88 % 985,2 hPa 0,0 l/m 15,8 km/h (3 Bft) SW 225 3,8 C 2,4 C
05.01.2012 05:07 5,8 C 88 % 985,0 hPa 0,0 l/m 31,7 km/h (5 Bft) S 180 4,0 C 1,0 C
05.01.2012 05:12 5,8 C 87 % 984,9 hPa 0,0 l/m 23,0 km/h (4 Bft) S-SW 202 3,8 C 1,7 C
05.01.2012 05:17 5,9 C 87 % 984,5 hPa 0,0 l/m 29,5 km/h (5 Bft) SW 225 3,9 C 1,3 C
05.01.2012 05:22 5,8 C 87 % 984,3 hPa 0,5 l/m 16,2 km/h (3 Bft) S-SW 202 3,8 C 2,6 C
05.01.2012 05:27 5,9 C 87 % 983,9 hPa 0,0 l/m 20,5 km/h (4 Bft) W-NW 292 3,9 C 2,1 C
05.01.2012 05:32 5,9 C 87 % 983,9 hPa 0,0 l/m 30,6 km/h (5 Bft) W 270 3,9 C 1,2 C
05.01.2012 05:37 5,9 C 87 % 983,7 hPa 0,0 l/m 23,8 km/h (4 Bft) SW 225 3,9 C 1,8 C
05.01.2012 05:42 5,9 C 87 % 983,6 hPa 0,0 l/m 22,7 km/h (4 Bft) W 270 3,9 C 1,9 C
05.01.2012 05:47 5,9 C 87 % 983,4 hPa 0,0 l/m 26,3 km/h (4 Bft) S 180 3,9 C 1,5 C
05.01.2012 05:52 5,9 C 87 % 983,2 hPa 0,0 l/m 27,4 km/h (4 Bft) SW 225 3,9 C 1,4 C
05.01.2012 05:57 5,9 C 87 % 983,0 hPa 0,0 l/m 22,3 km/h (4 Bft) W 270 3,9 C 1,9 C
05.01.2012 06:02 5,9 C 87 % 982,9 hPa 0,0 l/m 25,2 km/h (4 Bft) S 180 3,9 C 1,7 C
05.01.2012 06:07 5,9 C 87 % 982,7 hPa 0,0 l/m 30,6 km/h (5 Bft) SW 225 3,9 C 1,2 C
05.01.2012 06:12 6,0 C 87 % 982,4 hPa 0,0 l/m 32,4 km/h (5 Bft) SW 225 4,0 C 1,2 C
05.01.2012 06:17 5,9 C 87 % 982,5 hPa 0,0 l/m 30,2 km/h (5 Bft) S-SW 202 3,9 C 1,2 C
05.01.2012 06:22 5,9 C 87 % 982,1 hPa 0,0 l/m 20,9 km/h (4 Bft) W-SW 247 3,9 C 2,1 C
05.01.2012 06:27 5,9 C 87 % 982,1 hPa 0,0 l/m 27,4 km/h (4 Bft) W 270 3,9 C 1,4 C
05.01.2012 06:32 5,9 C 87 % 982,1 hPa 0,0 l/m 23,4 km/h (4 Bft) W-SW 247 3,9 C 1,8 C
05.01.2012 06:37 5,9 C 87 % 981,8 hPa 0,0 l/m 20,2 km/h (4 Bft) SW 225 3,9 C 2,2 C
05.01.2012 06:42 5,9 C 87 % 981,8 hPa 0,0 l/m 25,6 km/h (4 Bft) S-SW 202 3,9 C 1,6 C
05.01.2012 06:47 5,9 C 87 % 981,6 hPa 0,0 l/m 31,0 km/h (5 Bft) W-SW 247 3,9 C 1,1 C
05.01.2012 06:52 6,0 C 87 % 981,6 hPa 0,0 l/m 28,4 km/h (4 Bft) NW 315 4,0 C 1,5 C
05.01.2012 06:57 6,1 C 86 % 981,2 hPa 0,0 l/m 41,0 km/h (6 Bft) SW 225 3,9 C 0,7 C
05.01.2012 07:02 6,1 C 85 % 981,3 hPa 0,0 l/m 32,8 km/h (5 Bft) W-SW 247 3,8 C 1,3 C
05.01.2012 07:07 6,1 C 85 % 981,0 hPa 0,0 l/m 27,7 km/h (4 Bft) SW 225 3,8 C 1,7 C
05.01.2012 07:12 6,1 C 85 % 980,9 hPa 0,0 l/m 30,6 km/h (5 Bft) SW 225 3,8 C 1,4 C
05.01.2012 07:17 6,0 C 85 % 981,2 hPa 0,0 l/m 27,7 km/h (4 Bft) W-NW 292 3,7 C 1,6 C
05.01.2012 07:22 6,1 C 84 % 981,2 hPa 0,0 l/m 19,1 km/h (3 Bft) S-SW 202 3,6 C 2,6 C
05.01.2012 07:27 6,0 C 84 % 981,2 hPa 0,0 l/m 21,6 km/h (4 Bft) W-SW 247 3,5 C 2,1 C
05.01.2012 07:32 5,9 C 84 % 981,3 hPa 0,0 l/m 29,5 km/h (5 Bft) SW 225 3,4 C 1,3 C
05.01.2012 07:37 5,9 C 85 % 981,1 hPa 0,0 l/m 27,7 km/h (4 Bft) W-SW 247 3,6 C 1,4 C
05.01.2012 07:42 5,9 C 85 % 981,1 hPa 0,0 l/m 15,1 km/h (3 Bft) W 270 3,6 C 2,8 C
05.01.2012 07:47 5,9 C 86 % 981,0 hPa 0,0 l/m 13,0 km/h (3 Bft) W-SW 247 3,7 C 3,2 C
05.01.2012 07:52 5,9 C 86 % 980,9 hPa 0,0 l/m 32,0 km/h (5 Bft) W 270 3,7 C 1,1 C
05.01.2012 07:57 6,1 C 86 % 980,9 hPa 0,0 l/m 28,1 km/h (4 Bft) W-SW 247 3,9 C 1,6 C
05.01.2012 08:02 6,1 C 85 % 980,9 hPa 0,0 l/m 28,1 km/h (4 Bft) W 270 3,8 C 1,6 C
05.01.2012 08:07 6,1 C 85 % 981,0 hPa 0,0 l/m 13,7 km/h (3 Bft) W-NW 292 3,8 C 3,3 C
05.01.2012 08:12 6,1 C 85 % 981,0 hPa 0,0 l/m 24,5 km/h (4 Bft) W-NW 292 3,8 C 2,0 C
05.01.2012 08:17 6,2 C 85 % 980,9 hPa 0,0 l/m 24,5 km/h (4 Bft) W-SW 247 3,9 C 2,1 C
05.01.2012 08:22 6,2 C 85 % 980,9 hPa 0,0 l/m 18,4 km/h (3 Bft) W 270 3,9 C 2,8 C
05.01.2012 08:27 6,2 C 84 % 981,0 hPa 0,0 l/m 19,4 km/h (3 Bft) W-SW 247 3,7 C 2,7 C
05.01.2012 08:32 6,2 C 84 % 980,2 hPa 0,0 l/m 18,7 km/h (3 Bft) W 270 3,7 C 2,7 C
05.01.2012 08:37 6,2 C 84 % 980,5 hPa 0,0 l/m 29,5 km/h (5 Bft) W-SW 247 3,7 C 1,7 C
05.01.2012 08:42 6,2 C 84 % 981,0 hPa 0,0 l/m 37,4 km/h (5 Bft) W-SW 247 3,7 C 1,1 C
05.01.2012 08:47 6,2 C 85 % 981,2 hPa 0,5 l/m 45,7 km/h (6 Bft) W-SW 247 3,9 C 0,5 C
05.01.2012 08:52 6,3 C 85 % 981,1 hPa 0,0 l/m 45,4 km/h (6 Bft) W 270 4,0 C 0,7 C
05.01.2012 08:57 6,2 C 85 % 981,4 hPa 0,5 l/m 18,7 km/h (3 Bft) NW 315 3,9 C 2,7 C
05.01.2012 09:02 6,0 C 83 % 981,5 hPa 0,0 l/m 24,1 km/h (4 Bft) W-SW 247 3,3 C 1,9 C
05.01.2012 09:07 5,9 C 84 % 981,7 hPa 0,0 l/m 29,2 km/h (5 Bft) W-SW 247 3,4 C 1,3 C
05.01.2012 09:12 5,9 C 84 % 981,3 hPa 0,0 l/m 6,1 km/h (2 Bft) W-NW 292 3,4 C 4,7 C
05.01.2012 09:17 5,8 C 85 % 981,2 hPa 0,0 l/m 13,3 km/h (3 Bft) W-SW 247 3,5 C 3,0 C
05.01.2012 09:22 5,8 C 85 % 981,3 hPa 0,0 l/m 9,7 km/h (2 Bft) W-SW 247 3,5 C 3,7 C
05.01.2012 09:27 5,6 C 85 % 981,2 hPa 0,0 l/m 18,7 km/h (3 Bft) W-SW 247 3,3 C 2,0 C
05.01.2012 09:32 5,6 C 85 % 981,1 hPa 0,0 l/m 9,0 km/h (2 Bft) SW 225 3,3 C 3,6 C
05.01.2012 09:37 5,6 C 85 % 981,0 hPa 0,0 l/m 22,3 km/h (4 Bft) SW 225 3,3 C 1,6 C
05.01.2012 09:42 5,6 C 86 % 981,3 hPa 0,0 l/m 7,6 km/h (2 Bft) SW 225 3,4 C 3,9 C
05.01.2012 09:47 5,6 C 86 % 981,2 hPa 0,0 l/m 25,6 km/h (4 Bft) W 270 3,4 C 1,2 C
05.01.2012 09:52 5,6 C 86 % 981,0 hPa 0,0 l/m 21,6 km/h (4 Bft) W-SW 247 3,4 C 1,6 C
05.01.2012 09:57 5,6 C 86 % 981,0 hPa 0,0 l/m 13,0 km/h (3 Bft) W-SW 247 3,4 C 2,8 C
05.01.2012 10:02 5,6 C 87 % 980,8 hPa 0,0 l/m 11,5 km/h (2 Bft) S-SW 202 3,6 C 3,1 C
05.01.2012 10:07 5,6 C 86 % 980,8 hPa 0,0 l/m 8,3 km/h (2 Bft) W 270 3,4 C 3,8 C
05.01.2012 10:12 5,6 C 86 % 981,0 hPa 0,0 l/m 11,2 km/h (2 Bft) W-NW 292 3,4 C 3,1 C
05.01.2012 10:17 5,6 C 86 % 980,9 hPa 0,0 l/m 19,1 km/h (3 Bft) W 270 3,4 C 1,9 C
05.01.2012 10:22 5,6 C 86 % 980,7 hPa 0,0 l/m 16,2 km/h (3 Bft) W 270 3,4 C 2,3 C
05.01.2012 10:27 5,5 C 86 % 980,8 hPa 0,0 l/m 18,0 km/h (3 Bft) W-SW 247 3,3 C 1,9 C
05.01.2012 10:32 5,5 C 86 % 980,6 hPa 0,0 l/m 9,7 km/h (2 Bft) W-SW 247 3,3 C 3,3 C
05.01.2012 10:37 5,6 C 86 % 980,5 hPa 0,0 l/m 13,3 km/h (3 Bft) W 270 3,4 C 2,8 C
05.01.2012 10:42 5,7 C 86 % 980,3 hPa 0,0 l/m 12,2 km/h (2 Bft) W-SW 247 3,5 C 3,1 C
05.01.2012 10:47 5,9 C 86 % 980,4 hPa 0,0 l/m 17,3 km/h (3 Bft) W 270 3,7 C 2,5 C
05.01.2012 10:52 5,9 C 86 % 980,2 hPa 0,0 l/m 23,4 km/h (4 Bft) W 270 3,7 C 1,8 C
05.01.2012 10:57 5,9 C 86 % 979,9 hPa 0,0 l/m 22,0 km/h (4 Bft) W-SW 247 3,7 C 2,0 C
05.01.2012 11:02 6,1 C 85 % 980,2 hPa 0,0 l/m 19,8 km/h (3 Bft) W 270 3,8 C 2,5 C
05.01.2012 11:07 6,1 C 85 % 980,0 hPa 0,0 l/m 9,7 km/h (2 Bft) W-SW 247 3,8 C 4,0 C
05.01.2012 11:12 6,3 C 85 % 979,9 hPa 0,0 l/m 19,4 km/h (3 Bft) W-NW 292 4,0 C 2,8 C
05.01.2012 11:17 6,3 C 84 % 979,8 hPa 0,0 l/m 30,6 km/h (5 Bft) W 270 3,8 C 1,7 C
05.01.2012 11:22 6,4 C 84 % 979,6 hPa 0,0 l/m 30,2 km/h (5 Bft) W-SW 247 3,9 C 1,9 C
05.01.2012 11:27 6,4 C 84 % 979,5 hPa 0,0 l/m 29,2 km/h (5 Bft) W-SW 247 3,9 C 1,9 C
05.01.2012 11:32 6,4 C 83 % 979,3 hPa 0,0 l/m 21,6 km/h (4 Bft) W 270 3,7 C 2,7 C
05.01.2012 11:37 6,5 C 83 % 979,3 hPa 0,0 l/m 21,2 km/h (4 Bft) W-SW 247 3,8 C 2,8 C
05.01.2012 11:42 6,5 C 83 % 979,0 hPa 0,0 l/m 25,9 km/h (4 Bft) W-SW 247 3,8 C 2,4 C
05.01.2012 11:47 6,6 C 83 % 978,8 hPa 0,0 l/m 31,0 km/h (5 Bft) W-SW 247 3,9 C 2,1 C
05.01.2012 11:52 6,6 C 82 % 978,8 hPa 0,0 l/m 23,0 km/h (4 Bft) W 270 3,8 C 2,8 C
05.01.2012 11:57 6,8 C 82 % 978,8 hPa 0,0 l/m 24,5 km/h (4 Bft) SW 225 3,9 C 2,9 C
05.01.2012 12:02 6,8 C 82 % 978,9 hPa 0,0 l/m 16,9 km/h (3 Bft) W-SW 247 3,9 C 3,7 C
05.01.2012 12:07 6,8 C 81 % 978,5 hPa 0,0 l/m 23,0 km/h (4 Bft) SW 225 3,8 C 3,0 C
05.01.2012 12:12 6,8 C 81 % 978,4 hPa 0,0 l/m 18,4 km/h (3 Bft) W 270 3,8 C 3,5 C
05.01.2012 12:17 6,8 C 81 % 978,2 hPa 0,0 l/m 16,2 km/h (3 Bft) SW 225 3,8 C 3,8 C
05.01.2012 12:22 6,8 C 81 % 978,0 hPa 0,0 l/m 10,4 km/h (2 Bft) W-SW 247 3,8 C 4,7 C
05.01.2012 12:27 6,8 C 81 % 978,0 hPa 0,0 l/m 11,9 km/h (2 Bft) SW 225 3,8 C 4,5 C
05.01.2012 12:32 6,9 C 81 % 978,0 hPa 0,0 l/m 21,2 km/h (4 Bft) W 270 3,9 C 3,3 C
05.01.2012 12:37 6,9 C 80 % 977,8 hPa 0,0 l/m 23,8 km/h (4 Bft) W 270 3,7 C 3,1 C
05.01.2012 12:42 6,9 C 80 % 977,9 hPa 0,0 l/m 33,5 km/h (5 Bft) S-SW 202 3,7 C 2,3 C
05.01.2012 12:47 7,0 C 79 % 977,8 hPa 0,0 l/m 11,9 km/h (2 Bft) SW 225 3,6 C 4,7 C
05.01.2012 12:52 7,1 C 79 % 977,5 hPa 0,0 l/m 17,6 km/h (3 Bft) SW 225 3,7 C 4,0 C
05.01.2012 12:57 7,1 C 79 % 977,4 hPa 0,0 l/m 11,2 km/h (2 Bft) W-SW 247 3,7 C 4,9 C
05.01.2012 13:02 7,1 C 80 % 977,5 hPa 0,0 l/m 16,6 km/h (3 Bft) W 270 3,9 C 4,1 C
05.01.2012 13:07 6,9 C 80 % 977,3 hPa 0,0 l/m 21,6 km/h (4 Bft) W-NW 292 3,7 C 3,3 C
05.01.2012 13:12 6,9 C 81 % 977,3 hPa 0,5 l/m 18,7 km/h (3 Bft) W-SW 247 3,9 C 3,6 C
05.01.2012 13:17 6,8 C 82 % 977,3 hPa 0,0 l/m 19,4 km/h (3 Bft) W-NW 292 3,9 C 3,4 C
05.01.2012 13:22 6,6 C 82 % 977,7 hPa 1,0 l/m 24,1 km/h (4 Bft) W-NW 292 3,8 C 2,7 C
05.01.2012 13:27 6,3 C 80 % 978,2 hPa 0,5 l/m 25,2 km/h (4 Bft) W-NW 292 3,1 C 2,2 C
05.01.2012 13:32 5,6 C 81 % 977,9 hPa 0,5 l/m 17,3 km/h (3 Bft) W 270 2,6 C 2,2 C
05.01.2012 13:37 5,1 C 82 % 977,4 hPa 0,0 l/m 27,0 km/h (4 Bft) SW 225 2,3 C 0,5 C
05.01.2012 13:42 4,9 C 82 % 977,3 hPa 0,0 l/m 22,7 km/h (4 Bft) W 270 2,1 C 0,6 C
05.01.2012 13:47 4,9 C 83 % 977,1 hPa 0,0 l/m 24,8 km/h (4 Bft) NW 315 2,3 C 0,4 C
05.01.2012 13:52 4,8 C 83 % 977,0 hPa 0,0 l/m 19,1 km/h (3 Bft) W 270 2,2 C 0,9 C
05.01.2012 13:57 4,9 C 83 % 977,1 hPa 0,0 l/m 16,2 km/h (3 Bft) W 270 2,3 C 1,4 C
05.01.2012 14:02 4,9 C 83 % 977,0 hPa 0,0 l/m 12,2 km/h (2 Bft) W-SW 247 2,3 C 2,1 C
05.01.2012 14:07 4,9 C 83 % 977,0 hPa 0,0 l/m 11,2 km/h (2 Bft) W-NW 292 2,3 C 2,3 C
05.01.2012 14:12 4,9 C 83 % 976,8 hPa 0,0 l/m 7,9 km/h (2 Bft) W-NW 292 2,3 C 3,0 C
05.01.2012 14:17 4,9 C 83 % 976,8 hPa 0,0 l/m 23,8 km/h (4 Bft) W 270 2,3 C 0,5 C
05.01.2012 14:22 4,9 C 83 % 976,5 hPa 0,0 l/m 9,7 km/h (2 Bft) W 270 2,3 C 2,6 C
05.01.2012 14:27 4,9 C 84 % 976,6 hPa 0,0 l/m 15,5 km/h (3 Bft) W-NW 292 2,4 C 1,5 C
05.01.2012 14:32 5,0 C 84 % 976,5 hPa 0,0 l/m 19,4 km/h (3 Bft) W-SW 247 2,5 C 1,1 C
05.01.2012 14:37 5,1 C 85 % 976,4 hPa 0,0 l/m 13,0 km/h (3 Bft) W-SW 247 2,8 C 2,2 C
05.01.2012 14:42 5,2 C 85 % 976,3 hPa 0,0 l/m 15,1 km/h (3 Bft) SW 225 2,9 C 2,0 C
05.01.2012 14:47 5,3 C 85 % 976,2 hPa 0,0 l/m 7,6 km/h (2 Bft) W-SW 247 3,0 C 3,6 C
05.01.2012 14:52 5,4 C 85 % 976,1 hPa 0,0 l/m 11,9 km/h (2 Bft) W 270 3,1 C 2,8 C
05.01.2012 14:57 5,6 C 84 % 976,1 hPa 0,0 l/m 19,1 km/h (3 Bft) SW 225 3,1 C 1,9 C
05.01.2012 15:02 5,6 C 84 % 976,0 hPa 0,0 l/m 19,8 km/h (3 Bft) W 270 3,1 C 1,8 C
05.01.2012 15:07 5,7 C 84 % 976,2 hPa 0,0 l/m 28,4 km/h (4 Bft) W-NW 292 3,2 C 1,1 C
05.01.2012 15:12 5,8 C 85 % 976,1 hPa 0,5 l/m 19,1 km/h (3 Bft) W-SW 247 3,5 C 2,2 C
05.01.2012 15:17 5,6 C 85 % 976,0 hPa 0,0 l/m 28,8 km/h (4 Bft) W-SW 247 3,3 C 0,9 C
05.01.2012 15:22 5,6 C 85 % 976,1 hPa 0,0 l/m 19,1 km/h (3 Bft) W-SW 247 3,3 C 1,9 C
05.01.2012 15:27 5,6 C 85 % 975,9 hPa 0,0 l/m 41,8 km/h (6 Bft) W 270 3,3 C -0,0 C
05.01.2012 15:32 5,6 C 85 % 975,8 hPa 0,0 l/m 20,2 km/h (4 Bft) W-NW 292 3,3 C 1,8 C
05.01.2012 15:37 5,6 C 85 % 975,9 hPa 0,0 l/m 14,8 km/h (3 Bft) W 270 3,3 C 2,5 C
05.01.2012 15:42 5,6 C 85 % 975,8 hPa 0,0 l/m 20,2 km/h (4 Bft) W 270 3,3 C 1,8 C
05.01.2012 15:47 5,6 C 84 % 975,9 hPa 0,0 l/m 29,5 km/h (5 Bft) W-SW 247 3,1 C 0,9 C
05.01.2012 15:52 5,6 C 84 % 976,1 hPa 0,0 l/m 18,0 km/h (3 Bft) SW 225 3,1 C 2,1 C
05.01.2012 15:57 5,6 C 84 % 975,8 hPa 0,0 l/m 27,0 km/h (4 Bft) W 270 3,1 C 1,1 C
05.01.2012 16:02 5,5 C 84 % 976,1 hPa 0,0 l/m 20,5 km/h (4 Bft) W 270 3,0 C 1,6 C
05.01.2012 16:07 5,5 C 84 % 976,0 hPa 0,0 l/m 29,5 km/h (5 Bft) W-SW 247 3,0 C 0,7 C
05.01.2012 16:12 5,4 C 83 % 976,0 hPa 0,0 l/m 25,2 km/h (4 Bft) W-NW 292 2,7 C 1,0 C
05.01.2012 16:17 5,4 C 83 % 976,0 hPa 0,0 l/m 13,0 km/h (3 Bft) W-SW 247 2,7 C 2,6 C
05.01.2012 16:22 5,3 C 83 % 975,9 hPa 0,0 l/m 15,5 km/h (3 Bft) W 270 2,7 C 2,0 C
05.01.2012 16:27 5,3 C 83 % 976,1 hPa 0,0 l/m 17,3 km/h (3 Bft) W-NW 292 2,7 C 1,8 C
05.01.2012 16:32 5,3 C 83 % 976,1 hPa 0,0 l/m 22,7 km/h (4 Bft) W 270 2,7 C 1,1 C
05.01.2012 16:37 5,3 C 84 % 976,2 hPa 0,0 l/m 22,3 km/h (4 Bft) S-SW 202 2,8 C 1,2 C
05.01.2012 16:42 5,2 C 84 % 976,3 hPa 0,0 l/m 18,4 km/h (3 Bft) W-SW 247 2,7 C 1,5 C
05.01.2012 16:47 5,1 C 84 % 976,3 hPa 0,0 l/m 14,4 km/h (3 Bft) W 270 2,6 C 2,0 C
05.01.2012 16:52 5,0 C 85 % 976,5 hPa 0,0 l/m 24,1 km/h (4 Bft) W 270 2,7 C 0,6 C
05.01.2012 16:57 4,9 C 85 % 976,6 hPa 0,0 l/m 18,0 km/h (3 Bft) NW 315 2,6 C 1,2 C
05.01.2012 17:02 4,9 C 86 % 976,8 hPa 0,0 l/m 21,6 km/h (4 Bft) W 270 2,8 C 0,8 C
05.01.2012 17:07 4,9 C 86 % 976,8 hPa 0,0 l/m 9,4 km/h (2 Bft) W-SW 247 2,8 C 2,7 C
05.01.2012 17:12 4,9 C 86 % 976,9 hPa 0,0 l/m 11,5 km/h (2 Bft) W 270 2,8 C 2,2 C
05.01.2012 17:17 4,9 C 86 % 977,0 hPa 0,0 l/m 20,9 km/h (4 Bft) NW 315 2,8 C 0,8 C
05.01.2012 17:22 4,9 C 86 % 977,2 hPa 0,0 l/m 23,4 km/h (4 Bft) W-NW 292 2,8 C 0,6 C
05.01.2012 17:27 4,9 C 86 % 977,2 hPa 0,0 l/m 13,3 km/h (3 Bft) W-SW 247 2,8 C 1,9 C
05.01.2012 17:32 4,9 C 86 % 977,3 hPa 0,0 l/m 24,5 km/h (4 Bft) W-NW 292 2,8 C 0,4 C
05.01.2012 17:37 5,0 C 86 % 977,4 hPa 0,0 l/m 37,4 km/h (5 Bft) W 270 2,9 C -0,5 C
05.01.2012 17:42 5,1 C 86 % 977,6 hPa 0,0 l/m 29,2 km/h (5 Bft) W 270 3,0 C 0,3 C
05.01.2012 17:47 5,1 C 86 % 977,6 hPa 0,0 l/m 24,1 km/h (4 Bft) W 270 3,0 C 0,7 C
05.01.2012 17:52 5,2 C 86 % 977,9 hPa 0,0 l/m 23,4 km/h (4 Bft) W-NW 292 3,1 C 0,9 C
05.01.2012 17:57 5,2 C 86 % 978,1 hPa 0,0 l/m 22,7 km/h (4 Bft) W 270 3,1 C 1,0 C
05.01.2012 18:02 5,2 C 86 % 978,1 hPa 0,0 l/m 20,5 km/h (4 Bft) NW 315 3,1 C 1,3 C
05.01.2012 18:07 5,1 C 86 % 978,3 hPa 0,0 l/m 12,6 km/h (3 Bft) W-NW 292 3,0 C 2,3 C
05.01.2012 18:12 5,1 C 86 % 978,5 hPa 0,0 l/m 26,3 km/h (4 Bft) W 270 3,0 C 0,5 C
05.01.2012 18:17 5,1 C 86 % 978,6 hPa 0,0 l/m 29,5 km/h (5 Bft) W 270 3,0 C 0,2 C
05.01.2012 18:22 5,0 C 86 % 978,7 hPa 0,0 l/m 18,4 km/h (3 Bft) W 270 2,9 C 1,3 C
05.01.2012 18:27 5,0 C 86 % 978,8 hPa 0,0 l/m 27,7 km/h (4 Bft) NW 315 2,9 C 0,3 C
05.01.2012 18:32 4,9 C 86 % 979,1 hPa 0,0 l/m 32,8 km/h (5 Bft) W-NW 292 2,8 C -0,3 C
05.01.2012 18:37 5,0 C 86 % 979,2 hPa 0,0 l/m 25,6 km/h (4 Bft) W-NW 292 2,9 C 0,5 C
05.01.2012 18:42 5,0 C 85 % 979,4 hPa 0,0 l/m 22,3 km/h (4 Bft) W-NW 292 2,7 C 0,8 C
05.01.2012 18:47 5,1 C 85 % 979,5 hPa 0,0 l/m 24,8 km/h (4 Bft) W 270 2,8 C 0,7 C
05.01.2012 18:52 5,1 C 84 % 979,6 hPa 0,0 l/m 24,1 km/h (4 Bft) W 270 2,6 C 0,7 C
05.01.2012 18:57 5,2 C 83 % 979,9 hPa 0,0 l/m 17,3 km/h (3 Bft) W 270 2,6 C 1,7 C
05.01.2012 19:02 5,2 C 83 % 979,9 hPa 0,0 l/m 37,8 km/h (5 Bft) W-NW 292 2,6 C -0,3 C
05.01.2012 19:07 5,2 C 83 % 980,1 hPa 0,0 l/m 26,6 km/h (4 Bft) NW 315 2,6 C 0,6 C
05.01.2012 19:12 5,2 C 83 % 980,5 hPa 0,0 l/m 27,7 km/h (4 Bft) NW 315 2,6 C 0,5 C
05.01.2012 19:17 5,2 C 82 % 980,4 hPa 0,0 l/m 22,7 km/h (4 Bft) NW 315 2,4 C 1,0 C
05.01.2012 19:22 5,1 C 81 % 980,5 hPa 0,0 l/m 31,3 km/h (5 Bft) NW 315 2,1 C 0,1 C
05.01.2012 19:27 5,1 C 81 % 980,7 hPa 0,0 l/m 33,5 km/h (5 Bft) W-NW 292 2,1 C -0,1 C
05.01.2012 19:32 5,1 C 81 % 980,9 hPa 0,0 l/m 18,0 km/h (3 Bft) W 270 2,1 C 1,4 C
05.01.2012 19:37 5,1 C 82 % 980,7 hPa 0,0 l/m 37,8 km/h (5 Bft) W-NW 292 2,3 C -0,4 C
05.01.2012 19:42 5,1 C 81 % 980,7 hPa 0,0 l/m 36,4 km/h (5 Bft) W 270 2,1 C -0,3 C
05.01.2012 19:47 5,0 C 82 % 980,9 hPa 0,0 l/m 27,7 km/h (4 Bft) NW 315 2,2 C 0,3 C
05.01.2012 19:52 4,9 C 82 % 981,1 hPa 0,0 l/m 36,0 km/h (5 Bft) W-NW 292 2,1 C -0,6 C
05.01.2012 19:57 5,0 C 82 % 981,2 hPa 0,5 l/m 23,0 km/h (4 Bft) W 270 2,2 C 0,7 C
05.01.2012 20:02 4,9 C 82 % 981,3 hPa 0,0 l/m 38,2 km/h (5 Bft) W-NW 292 2,1 C -0,7 C
05.01.2012 20:07 4,9 C 82 % 981,5 hPa 0,0 l/m 32,4 km/h (5 Bft) W-NW 292 2,1 C -0,3 C
05.01.2012 20:12 4,9 C 82 % 981,9 hPa 0,0 l/m 28,1 km/h (4 Bft) W-SW 247 2,1 C 0,1 C
05.01.2012 20:17 4,9 C 82 % 982,0 hPa 0,0 l/m 24,5 km/h (4 Bft) W-NW 292 2,1 C 0,4 C
05.01.2012 20:22 4,8 C 83 % 981,9 hPa 0,0 l/m 28,1 km/h (4 Bft) NW 315 2,2 C -0,0 C
05.01.2012 20:27 4,7 C 83 % 982,0 hPa 0,0 l/m 19,4 km/h (3 Bft) W 270 2,1 C 0,8 C
05.01.2012 20:32 4,6 C 83 % 982,2 hPa 0,0 l/m 30,2 km/h (5 Bft) W-NW 292 2,0 C -0,5 C
05.01.2012 20:37 4,6 C 83 % 982,4 hPa 0,0 l/m 34,9 km/h (5 Bft) W-NW 292 2,0 C -0,9 C
05.01.2012 20:42 4,6 C 83 % 982,6 hPa 0,0 l/m 19,8 km/h (3 Bft) W 270 2,0 C 0,6 C
05.01.2012 20:47 4,5 C 83 % 982,7 hPa 0,0 l/m 36,4 km/h (5 Bft) NW 315 1,9 C -1,1 C
05.01.2012 20:52 4,4 C 84 % 982,8 hPa 0,5 l/m 36,7 km/h (5 Bft) W 270 1,9 C -1,3 C
05.01.2012 20:57 4,4 C 84 % 983,1 hPa 0,0 l/m 23,8 km/h (4 Bft) W 270 1,9 C -0,1 C
05.01.2012 21:02 4,3 C 85 % 983,2 hPa 0,0 l/m 19,8 km/h (3 Bft) NW 315 2,0 C 0,2 C
05.01.2012 21:07 4,1 C 85 % 983,3 hPa 0,5 l/m 14,4 km/h (3 Bft) W-NW 292 1,8 C 0,7 C
05.01.2012 21:12 4,1 C 85 % 983,4 hPa 0,0 l/m 28,8 km/h (4 Bft) W-NW 292 1,8 C -1,0 C
05.01.2012 21:17 4,1 C 86 % 983,7 hPa 0,0 l/m 29,2 km/h (5 Bft) W-NW 292 2,0 C -1,1 C
05.01.2012 21:22 3,9 C 86 % 983,9 hPa 0,5 l/m 35,3 km/h (5 Bft) NW 315 1,8 C -1,8 C
05.01.2012 21:27 3,9 C 86 % 983,9 hPa 0,0 l/m 25,6 km/h (4 Bft) W-NW 292 1,8 C -1,0 C
05.01.2012 21:32 3,9 C 86 % 983,9 hPa 0,0 l/m 22,3 km/h (4 Bft) NW 315 1,8 C -0,6 C
05.01.2012 21:37 3,9 C 86 % 984,0 hPa 0,0 l/m 18,4 km/h (3 Bft) W 270 1,8 C -0,1 C
05.01.2012 21:42 3,9 C 86 % 984,1 hPa 0,0 l/m 26,3 km/h (4 Bft) W-NW 292 1,8 C -1,0 C
05.01.2012 21:47 3,9 C 86 % 984,3 hPa 0,5 l/m 18,4 km/h (3 Bft) W-SW 247 1,8 C -0,1 C
05.01.2012 21:52 3,9 C 86 % 984,5 hPa 0,0 l/m 19,8 km/h (3 Bft) W 270 1,8 C -0,3 C
05.01.2012 21:57 4,0 C 86 % 984,7 hPa 0,0 l/m 20,5 km/h (4 Bft) W-NW 292 1,9 C -0,3 C
05.01.2012 22:02 4,0 C 86 % 984,6 hPa 0,0 l/m 21,2 km/h (4 Bft) W-NW 292 1,9 C -0,3 C
05.01.2012 22:07 4,1 C 86 % 985,2 hPa 0,0 l/m 26,6 km/h (4 Bft) W-NW 292 2,0 C -0,8 C
05.01.2012 22:12 4,1 C 86 % 985,2 hPa 0,0 l/m 14,4 km/h (3 Bft) W-NW 292 2,0 C 0,7 C
05.01.2012 22:17 4,1 C 87 % 985,2 hPa 0,0 l/m 14,8 km/h (3 Bft) W-NW 292 2,1 C 0,7 C
05.01.2012 22:22 3,9 C 86 % 985,4 hPa 0,0 l/m 22,0 km/h (4 Bft) W-NW 292 1,8 C -0,6 C
05.01.2012 22:27 4,1 C 87 % 985,8 hPa 0,0 l/m 18,0 km/h (3 Bft) NW 315 2,1 C 0,2 C
05.01.2012 22:32 4,1 C 87 % 985,8 hPa 0,5 l/m 14,4 km/h (3 Bft) W 270 2,1 C 0,7 C
05.01.2012 22:37 4,0 C 87 % 986,0 hPa 0,0 l/m 27,4 km/h (4 Bft) W-NW 292 2,0 C -1,0 C
05.01.2012 22:42 4,0 C 87 % 986,0 hPa 0,0 l/m 43,6 km/h (6 Bft) W-NW 292 2,0 C -2,3 C
05.01.2012 22:47 3,9 C 87 % 986,3 hPa 0,0 l/m 19,4 km/h (3 Bft) W-NW 292 1,9 C -0,2 C
05.01.2012 22:52 3,9 C 87 % 986,4 hPa 0,0 l/m 27,4 km/h (4 Bft) N-NW 337 1,9 C -1,1 C
05.01.2012 22:57 3,9 C 87 % 986,4 hPa 0,0 l/m 9,7 km/h (2 Bft) W 270 1,9 C 1,4 C
05.01.2012 23:02 3,9 C 87 % 986,8 hPa 0,5 l/m 18,7 km/h (3 Bft) W 270 1,9 C -0,2 C
05.01.2012 23:07 3,9 C 87 % 986,8 hPa 0,0 l/m 16,6 km/h (3 Bft) W 270 1,9 C 0,1 C
05.01.2012 23:12 3,9 C 87 % 987,0 hPa 0,0 l/m 21,2 km/h (4 Bft) NW 315 1,9 C -0,5 C
05.01.2012 23:17 3,8 C 87 % 987,1 hPa 0,5 l/m 29,2 km/h (5 Bft) W 270 1,8 C -1,4 C
05.01.2012 23:22 3,8 C 88 % 987,1 hPa 0,0 l/m 7,2 km/h (2 Bft) W 270 2,0 C 2,0 C
05.01.2012 23:27 3,8 C 88 % 987,4 hPa 0,0 l/m 21,6 km/h (4 Bft) NW 315 2,0 C -0,6 C
05.01.2012 23:32 3,8 C 88 % 987,4 hPa 0,0 l/m 25,2 km/h (4 Bft) NW 315 2,0 C -1,0 C
05.01.2012 23:37 3,8 C 88 % 987,5 hPa 0,5 l/m 9,4 km/h (2 Bft) NW 315 2,0 C 1,4 C
05.01.2012 23:42 3,6 C 87 % 987,5 hPa 0,0 l/m 27,0 km/h (4 Bft) N 360 1,6 C -1,5 C
05.01.2012 23:47 3,6 C 87 % 987,7 hPa 0,0 l/m 21,6 km/h (4 Bft) W-NW 292 1,6 C -0,9 C
05.01.2012 23:52 3,5 C 87 % 987,9 hPa 0,0 l/m 18,7 km/h (3 Bft) NW 315 1,5 C -0,7 C
05.01.2012 23:57 3,5 C 87 % 987,9 hPa 0,0 l/m 17,6 km/h (3 Bft) W-NW 292 1,5 C -0,5 C
_ Min-Zeit 23:52 00:02 15:32 - 09:12 - - 23:52 22:42
Minimum _ 3,5 C 79 % 975,8 hPa - 6,1 km/h (2 Bft) - - 1,5 C -2,3 C
_ Max-Zeit 12:52 04:32 00:02 00:57 08:47 - - 06:12 12:57
Maximum _ 7,1 C 89 % 999,4 hPa 1,0 l/m 45,7 km/h
W-SW (6 Bft)
- - 4,0 C 4,9 C
Durchschnitt _ 5,3 C 85 % 983,1 hPa #15,0 l/m 22,2 km/h (4 Bft) W - 3,0 C 1,3 C
(c) by David Heller